Time;durP1;ratioP1;P1;durP2;ratioP2;P2;SDS_P1;SDS_P2;PMS_P1;PMS_P2;Temp;Humidity;BMP_temperature;BMP_pressure;BME280_temperature;BME280_humidity;BME280_pressure;Samples;Min_cycle;Max_cycle;Signal;HPM_P1;HPM_P2
2024/03/30 00:00:47;;;;;;;0.30;0.30;;;15.40;83.10;;;;;;5010390;28;20048;-78
2024/03/30 00:03:13;;;;;;;0.68;0.50;;;15.40;83.40;;;;;;4998363;28;20540;-79
2024/03/30 00:05:38;;;;;;;0.43;0.43;;;15.40;82.70;;;;;;5002667;28;20034;-78
2024/03/30 00:08:05;;;;;;;0.35;0.20;;;15.40;82.90;;;;;;4980820;28;20054;-78
2024/03/30 00:10:31;;;;;;;0.30;0.30;;;15.40;83.80;;;;;;5007949;28;20124;-78
2024/03/30 00:12:56;;;;;;;0.40;0.40;;;15.40;83.50;;;;;;5016405;28;20041;-79
2024/03/30 00:15:26;;;;;;;0.50;0.50;;;15.40;84.00;;;;;;5009123;28;20049;-78
2024/03/30 00:17:51;;;;;;;0.20;0.20;;;15.40;83.70;;;;;;5026559;28;20511;-78
2024/03/30 00:20:17;;;;;;;0.38;0.38;;;15.40;83.60;;;;;;4998801;28;20065;-79
2024/03/30 00:22:43;;;;;;;0.40;0.35;;;15.40;82.70;;;;;;5022612;28;20099;-79
2024/03/30 00:25:08;;;;;;;0.38;0.20;;;15.40;82.20;;;;;;5016680;28;20499;-79
2024/03/30 00:27:34;;;;;;;0.32;0.32;;;15.40;82.40;;;;;;5001141;28;20064;-79
2024/03/30 00:30:00;;;;;;;0.50;0.40;;;15.30;82.50;;;;;;4981728;28;20095;-79
2024/03/30 00:32:25;;;;;;;0.60;0.32;;;15.40;82.40;;;;;;5022969;28;20132;-79
2024/03/30 00:34:51;;;;;;;0.25;0.25;;;15.30;81.50;;;;;;5025601;28;20045;-78
2024/03/30 00:37:16;;;;;;;0.50;0.50;;;15.30;81.60;;;;;;5025517;28;20049;-79
2024/03/30 00:39:42;;;;;;;0.30;0.30;;;15.30;81.90;;;;;;5025895;28;20037;-79
2024/03/30 00:42:08;;;;;;;0.50;0.30;;;15.40;82.10;;;;;;5017864;28;20090;-79
2024/03/30 00:44:33;;;;;;;0.55;0.40;;;15.30;82.20;;;;;;5033738;28;20140;-79
2024/03/30 00:46:59;;;;;;;0.25;0.22;;;15.30;82.40;;;;;;5016060;28;20826;-79
2024/03/30 00:49:24;;;;;;;0.40;0.40;;;15.40;82.30;;;;;;5036236;28;20140;-79
2024/03/30 00:51:50;;;;;;;0.50;0.50;;;15.30;82.40;;;;;;5028568;28;20550;-79
2024/03/30 00:54:15;;;;;;;0.40;0.40;;;15.40;82.60;;;;;;5038584;28;20658;-79
2024/03/30 00:56:41;;;;;;;0.52;0.50;;;15.30;82.70;;;;;;5036790;28;20041;-79
2024/03/30 00:59:07;;;;;;;0.40;0.40;;;15.30;83.10;;;;;;5033682;28;20471;-79
2024/03/30 01:01:32;;;;;;;0.43;0.43;;;15.30;82.70;;;;;;5037389;28;20034;-79
2024/03/30 01:03:58;;;;;;;0.57;0.50;;;15.30;82.60;;;;;;5038218;28;20183;-78
2024/03/30 01:06:24;;;;;;;0.28;0.28;;;15.30;82.90;;;;;;5032198;28;20052;-79
2024/03/30 01:08:50;;;;;;;0.80;0.57;;;15.40;82.90;;;;;;5032230;28;20042;-77
2024/03/30 01:11:16;;;;;;;0.68;0.25;;;15.30;82.80;;;;;;5012671;28;20053;-76
2024/03/30 01:13:42;;;;;;;0.50;0.30;;;15.30;82.50;;;;;;5038247;28;20033;-76
2024/03/30 01:16:11;;;;;;;0.52;0.50;;;15.30;82.50;;;;;;5028074;28;20059;-76
2024/03/30 01:18:40;;;;;;;0.40;0.40;;;15.30;82.80;;;;;;5016060;28;20041;-77
2024/03/30 01:21:06;;;;;;;0.30;0.30;;;15.30;83.10;;;;;;5040701;28;20068;-77
2024/03/30 01:23:31;;;;;;;0.52;0.30;;;15.30;82.20;;;;;;5033435;28;20083;-77
2024/03/30 01:25:58;;;;;;;0.40;0.30;;;15.30;82.50;;;;;;5001814;28;20041;-76
2024/03/30 01:28:24;;;;;;;0.22;0.22;;;15.30;82.40;;;;;;5004514;28;20123;-76
2024/03/30 01:30:50;;;;;;;0.30;0.25;;;15.30;82.20;;;;;;5020599;28;20047;-77
2024/03/30 01:33:16;;;;;;;0.25;0.25;;;15.30;82.50;;;;;;5024379;28;20478;-77
2024/03/30 01:35:42;;;;;;;0.50;0.40;;;15.30;82.20;;;;;;5017084;28;20456;-76
2024/03/30 01:38:07;;;;;;;0.63;0.32;;;15.30;82.00;;;;;;5023758;28;20098;-77
2024/03/30 01:40:33;;;;;;;0.57;0.30;;;15.30;82.00;;;;;;5004189;28;20061;-77
2024/03/30 01:43:03;;;;;;;0.50;0.50;;;15.30;82.40;;;;;;5022954;28;20671;-76
2024/03/30 01:45:30;;;;;;;0.45;0.38;;;15.30;83.80;;;;;;5016658;28;20048;-76
2024/03/30 01:47:56;;;;;;;0.73;0.50;;;15.30;82.90;;;;;;5018379;28;20080;-76
2024/03/30 01:50:22;;;;;;;0.30;0.30;;;15.30;82.90;;;;;;5006318;28;20037;-76
2024/03/30 01:52:47;;;;;;;0.40;0.40;;;15.30;83.20;;;;;;5013757;28;20041;-77
2024/03/30 01:55:13;;;;;;;0.30;0.30;;;15.30;82.50;;;;;;5019628;28;20050;-77
2024/03/30 01:57:39;;;;;;;0.25;0.10;;;15.20;82.20;;;;;;5012274;28;20463;-77
2024/03/30 02:00:07;;;;;;;0.30;0.30;;;15.30;82.80;;;;;;4997338;28;20037;-77
2024/03/30 02:02:32;;;;;;;0.30;0.30;;;15.30;82.20;;;;;;4994020;28;20550;-76
2024/03/30 02:04:58;;;;;;;0.30;0.30;;;15.30;82.80;;;;;;5022972;28;20030;-77
2024/03/30 02:07:23;;;;;;;0.40;0.40;;;15.30;83.10;;;;;;5013189;28;20037;-76
2024/03/30 02:09:49;;;;;;;1.15;0.45;;;15.30;82.80;;;;;;5026567;28;20148;-76
2024/03/30 02:12:15;;;;;;;0.22;0.20;;;15.30;83.00;;;;;;5031659;28;20045;-76
2024/03/30 02:14:41;;;;;;;0.20;0.20;;;15.30;82.90;;;;;;5000181;28;20673;-76
2024/03/30 02:17:06;;;;;;;0.82;0.40;;;15.30;83.20;;;;;;5000133;28;20042;-76
2024/03/30 02:19:35;;;;;;;0.30;0.30;;;15.20;82.90;;;;;;5034395;28;20033;-76
2024/03/30 02:22:01;;;;;;;0.50;0.50;;;15.20;82.60;;;;;;5016765;28;20057;-77
2024/03/30 02:24:26;;;;;;;0.50;0.35;;;15.20;82.50;;;;;;5033148;28;20171;-77
2024/03/30 02:26:52;;;;;;;0.73;0.30;;;15.20;82.80;;;;;;5030859;28;20047;-76
2024/03/30 02:29:17;;;;;;;0.30;0.30;;;15.30;82.80;;;;;;4999376;28;20046;-77
2024/03/30 02:31:43;;;;;;;0.40;0.40;;;15.20;83.10;;;;;;5019512;28;20045;-77
2024/03/30 02:34:08;;;;;;;0.40;0.40;;;15.30;82.60;;;;;;5003132;28;20489;-76
2024/03/30 02:36:34;;;;;;;0.30;0.30;;;15.20;82.40;;;;;;5038535;28;20041;-76
2024/03/30 02:39:00;;;;;;;0.47;0.45;;;15.20;82.40;;;;;;4998855;28;20045;-76
2024/03/30 02:41:25;;;;;;;0.50;0.50;;;15.20;82.60;;;;;;5021150;28;20056;-76
2024/03/30 02:43:54;;;;;;;0.50;0.35;;;15.20;82.90;;;;;;4997563;28;20045;-76
2024/03/30 02:46:20;;;;;;;0.40;0.40;;;15.20;82.90;;;;;;4984131;28;20048;-76
2024/03/30 02:48:45;;;;;;;0.50;0.50;;;15.30;82.80;;;;;;5001748;28;20121;-77
2024/03/30 02:51:11;;;;;;;0.30;0.30;;;15.20;83.10;;;;;;4997612;28;20096;-76
2024/03/30 02:53:37;;;;;;;0.35;0.30;;;15.20;82.40;;;;;;5020160;28;20063;-76
2024/03/30 02:56:02;;;;;;;0.40;0.40;;;15.20;82.90;;;;;;5020048;28;20041;-77
2024/03/30 02:58:28;;;;;;;0.55;0.40;;;15.30;82.00;;;;;;5017823;28;20081;-76
2024/03/30 03:00:54;;;;;;;0.30;0.30;;;15.20;82.40;;;;;;5006439;28;20092;-76
2024/03/30 03:03:19;;;;;;;0.30;0.30;;;15.20;82.30;;;;;;4988970;28;20080;-76
2024/03/30 03:05:45;;;;;;;0.50;0.40;;;15.20;81.80;;;;;;5009434;28;20119;-76
2024/03/30 03:08:11;;;;;;;0.30;0.30;;;15.20;81.70;;;;;;4991740;28;20046;-76
2024/03/30 03:10:36;;;;;;;0.30;0.30;;;15.20;81.90;;;;;;5008458;28;20057;-76
2024/03/30 03:13:02;;;;;;;0.40;0.30;;;15.20;81.60;;;;;;4989953;28;20058;-77
2024/03/30 03:15:27;;;;;;;0.80;0.50;;;15.20;82.40;;;;;;4992051;28;20034;-76
2024/03/30 03:17:53;;;;;;;0.40;0.40;;;15.20;82.30;;;;;;4997932;28;20045;-77
2024/03/30 03:20:19;;;;;;;0.20;0.20;;;15.20;82.00;;;;;;4990926;28;20041;-76
2024/03/30 03:22:45;;;;;;;0.40;0.30;;;15.20;82.40;;;;;;4986345;28;20403;-76
2024/03/30 03:25:10;;;;;;;0.32;0.32;;;15.20;82.10;;;;;;4994265;28;20168;-76
2024/03/30 03:27:36;;;;;;;0.50;0.30;;;15.20;82.00;;;;;;5009299;28;20050;-76
2024/03/30 03:30:02;;;;;;;0.50;0.30;;;15.20;82.40;;;;;;5008424;28;20052;-76
2024/03/30 03:32:28;;;;;;;0.45;0.30;;;15.20;82.40;;;;;;5010037;28;20085;-76
2024/03/30 03:34:54;;;;;;;0.70;0.50;;;15.20;82.20;;;;;;4997559;28;20069;-76
2024/03/30 03:37:20;;;;;;;0.30;0.30;;;15.20;82.10;;;;;;4991713;28;20037;-76
2024/03/30 03:39:45;;;;;;;0.38;0.32;;;15.20;82.30;;;;;;4990098;28;20411;-76
2024/03/30 03:42:11;;;;;;;0.50;0.50;;;15.20;81.60;;;;;;5007544;28;20745;-76
2024/03/30 03:44:37;;;;;;;0.75;0.35;;;15.20;82.50;;;;;;5002573;28;20048;-76
2024/03/30 03:47:02;;;;;;;0.80;0.57;;;15.20;81.50;;;;;;5008057;28;20045;-76
2024/03/30 03:49:28;;;;;;;0.40;0.30;;;15.20;82.50;;;;;;5026508;28;20121;-76
2024/03/30 03:51:55;;;;;;;0.20;0.20;;;15.20;81.70;;;;;;5006648;28;20499;-76
2024/03/30 03:54:21;;;;;;;0.57;0.40;;;15.20;82.60;;;;;;5026882;28;20099;-76
2024/03/30 03:56:46;;;;;;;0.43;0.43;;;15.20;82.10;;;;;;5008760;28;20460;-76
2024/03/30 03:59:13;;;;;;;0.60;0.52;;;15.20;82.30;;;;;;4990893;28;20041;-76
2024/03/30 04:01:38;;;;;;;0.75;0.40;;;15.20;82.60;;;;;;4992282;28;20068;-76
2024/03/30 04:04:04;;;;;;;0.45;0.30;;;15.20;82.80;;;;;;5004356;28;20053;-76
2024/03/30 04:06:29;;;;;;;0.40;0.30;;;15.20;82.70;;;;;;5026972;28;20029;-76
2024/03/30 04:08:56;;;;;;;0.40;0.40;;;15.20;82.20;;;;;;5008993;28;20041;-77
2024/03/30 04:11:21;;;;;;;0.20;0.20;;;15.10;82.60;;;;;;5005421;28;20050;-76
2024/03/30 04:13:47;;;;;;;0.22;0.22;;;15.20;82.40;;;;;;5026246;28;20461;-76
2024/03/30 04:16:12;;;;;;;0.50;0.30;;;15.10;82.30;;;;;;4992050;28;20125;-76
2024/03/30 04:18:38;;;;;;;0.50;0.40;;;15.20;82.60;;;;;;5024728;28;20625;-76
2024/03/30 04:21:04;;;;;;;0.30;0.30;;;15.20;82.30;;;;;;5025776;28;20072;-76
2024/03/30 04:23:31;;;;;;;0.20;0.20;;;15.10;82.60;;;;;;5007956;28;20057;-76
2024/03/30 04:26:10;;;;;;;0.22;0.22;;;15.20;82.60;;;;;;5005663;28;20037;-76
2024/03/30 04:28:36;;;;;;;0.22;0.20;;;15.20;82.00;;;;;;5006589;28;20060;-76
2024/03/30 04:31:03;;;;;;;0.50;0.40;;;15.10;82.30;;;;;;5025341;28;20045;-76
2024/03/30 04:33:29;;;;;;;0.43;0.35;;;15.10;82.20;;;;;;5008557;28;20049;-77
2024/03/30 04:35:59;;;;;;;0.28;0.28;;;15.10;82.60;;;;;;5009409;28;20503;-76
2024/03/30 04:38:25;;;;;;;0.20;0.20;;;15.10;82.80;;;;;;4989365;28;20131;-76
2024/03/30 04:40:58;;;;;;;0.30;0.30;;;15.10;82.90;;;;;;5013562;28;20496;-76
2024/03/30 04:43:24;;;;;;;0.20;0.20;;;15.10;82.30;;;;;;5004283;28;20582;-76
2024/03/30 04:45:49;;;;;;;0.28;0.20;;;15.20;82.30;;;;;;5008391;28;20033;-76
2024/03/30 04:48:15;;;;;;;0.30;0.30;;;15.10;82.90;;;;;;5008842;28;20059;-76
2024/03/30 04:50:41;;;;;;;0.30;0.30;;;15.10;82.50;;;;;;5006520;28;20042;-76
2024/03/30 04:53:06;;;;;;;0.70;0.30;;;15.20;82.90;;;;;;5024426;28;20072;-77
2024/03/30 04:55:32;;;;;;;0.30;0.28;;;15.10;82.20;;;;;;5005901;28;20041;-76
2024/03/30 04:57:57;;;;;;;0.30;0.30;;;15.20;84.20;;;;;;5008146;28;20099;-76
2024/03/30 05:00:23;;;;;;;0.32;0.30;;;15.10;83.40;;;;;;5027697;28;20045;-77
2024/03/30 05:02:49;;;;;;;0.35;0.35;;;15.10;82.80;;;;;;5031216;28;20045;-76
2024/03/30 05:05:14;;;;;;;0.28;0.20;;;15.10;82.00;;;;;;5020343;28;20116;-76
2024/03/30 05:07:40;;;;;;;0.30;0.30;;;15.10;82.10;;;;;;4994331;28;20030;-76
2024/03/30 05:10:06;;;;;;;0.30;0.30;;;15.10;82.10;;;;;;5010247;28;20557;-76
2024/03/30 05:12:32;;;;;;;0.30;0.30;;;15.10;82.60;;;;;;5011734;28;20513;-76
2024/03/30 05:14:57;;;;;;;0.28;0.28;;;15.10;82.50;;;;;;5009820;28;20041;-76
2024/03/30 05:17:23;;;;;;;0.30;0.30;;;15.10;83.20;;;;;;4993221;28;20053;-76
2024/03/30 05:22:34;;;;;;;0.30;0.30;;;15.10;82.40;;;;;;4982398;28;20045;-76
2024/03/30 05:25:00;;;;;;;0.30;0.20;;;15.10;82.70;;;;;;5007648;28;20420;-76
2024/03/30 05:27:25;;;;;;;0.28;0.28;;;15.10;83.00;;;;;;5030075;28;20414;-76
2024/03/30 05:29:51;;;;;;;0.40;0.40;;;15.10;83.10;;;;;;5009687;28;20045;-76
2024/03/30 05:32:16;;;;;;;0.43;0.35;;;15.10;82.80;;;;;;5027016;28;20041;-76
2024/03/30 05:34:42;;;;;;;0.40;0.38;;;15.10;83.80;;;;;;5029691;28;20172;-76
2024/03/30 05:37:08;;;;;;;0.20;0.20;;;15.10;83.00;;;;;;5028862;28;20049;-76
2024/03/30 05:39:33;;;;;;;0.20;0.20;;;15.10;82.20;;;;;;5028294;28;20120;-76
2024/03/30 05:41:59;;;;;;;0.50;0.30;;;15.10;82.50;;;;;;5027942;28;20037;-76
2024/03/30 05:44:26;;;;;;;0.30;0.30;;;15.10;82.80;;;;;;5025497;28;20083;-76
2024/03/30 05:46:54;;;;;;;0.30;0.30;;;15.10;82.90;;;;;;5023411;28;20088;-76
2024/03/30 05:49:20;;;;;;;0.30;0.30;;;15.10;82.30;;;;;;5032330;28;20041;-76
2024/03/30 05:51:45;;;;;;;0.40;0.40;;;15.10;82.70;;;;;;5021257;28;20048;-76
2024/03/30 05:54:11;;;;;;;0.50;0.30;;;15.10;82.50;;;;;;5031383;28;20102;-76
2024/03/30 05:56:36;;;;;;;0.20;0.20;;;15.10;82.50;;;;;;5010555;28;20046;-76
2024/03/30 05:59:02;;;;;;;0.30;0.30;;;15.10;83.00;;;;;;5025827;28;20049;-76
2024/03/30 06:01:28;;;;;;;0.55;0.30;;;15.10;83.00;;;;;;5015809;28;20445;-76
2024/03/30 06:03:53;;;;;;;0.30;0.30;;;15.10;82.10;;;;;;5011346;28;20042;-76
2024/03/30 06:06:19;;;;;;;0.38;0.30;;;15.10;82.80;;;;;;5017371;28;20104;-76
2024/03/30 06:08:45;;;;;;;1.08;0.22;;;15.10;82.60;;;;;;5009991;28;20415;-76
2024/03/30 06:11:11;;;;;;;0.22;0.22;;;15.10;82.80;;;;;;5027990;28;20533;-76
2024/03/30 06:13:36;;;;;;;0.30;0.30;;;15.10;82.50;;;;;;5023713;28;20064;-76
2024/03/30 06:16:02;;;;;;;0.30;0.30;;;15.10;82.20;;;;;;5020836;28;20037;-76
2024/03/30 06:18:28;;;;;;;0.30;0.28;;;15.10;82.70;;;;;;5021861;28;20049;-76
2024/03/30 06:20:53;;;;;;;0.20;0.20;;;15.10;82.10;;;;;;5030598;28;20449;-76
2024/03/30 06:23:19;;;;;;;0.28;0.28;;;15.10;82.10;;;;;;5017423;28;20038;-76
2024/03/30 06:25:45;;;;;;;0.30;0.30;;;15.10;82.80;;;;;;5022182;28;20107;-76
2024/03/30 06:28:10;;;;;;;0.20;0.10;;;15.10;82.80;;;;;;5024508;28;20033;-76
2024/03/30 06:30:36;;;;;;;0.32;0.30;;;15.00;82.50;;;;;;5031907;28;20033;-76
2024/03/30 06:33:02;;;;;;;0.35;0.20;;;15.10;83.00;;;;;;5020313;28;20045;-76
2024/03/30 06:35:28;;;;;;;0.30;0.30;;;15.10;83.00;;;;;;5007002;28;20042;-76
2024/03/30 06:37:54;;;;;;;0.32;0.32;;;15.10;82.80;;;;;;5029020;28;20124;-76
2024/03/30 06:45:48;;;;;;;0.30;0.30;;;15.10;82.90;;;;;;5029984;28;20055;-77
2024/03/30 06:48:13;;;;;;;0.52;0.32;;;15.10;83.00;;;;;;5022204;28;20121;-76
2024/03/30 06:50:39;;;;;;;0.40;0.30;;;15.10;82.00;;;;;;5028120;28;20072;-76
2024/03/30 06:53:04;;;;;;;0.60;0.45;;;15.10;82.40;;;;;;5029437;28;20041;-77
2024/03/30 06:55:30;;;;;;;0.43;0.40;;;15.10;82.30;;;;;;5026544;28;20526;-76
2024/03/30 06:57:56;;;;;;;0.20;0.20;;;15.10;82.80;;;;;;5027064;28;20095;-76
2024/03/30 07:00:21;;;;;;;0.43;0.40;;;15.10;82.50;;;;;;5028630;28;20585;-76
2024/03/30 07:02:47;;;;;;;0.40;0.40;;;15.10;82.80;;;;;;5027103;28;20057;-76
2024/03/30 07:05:13;;;;;;;0.73;0.38;;;15.10;83.70;;;;;;5011835;28;20099;-76
2024/03/30 07:07:38;;;;;;;0.20;0.17;;;15.10;83.20;;;;;;5037482;28;20507;-76
2024/03/30 07:10:04;;;;;;;0.38;0.38;;;15.10;83.10;;;;;;5033465;28;20041;-76
2024/03/30 07:12:30;;;;;;;0.25;0.25;;;15.10;82.90;;;;;;5008525;28;20582;-76
2024/03/30 07:14:55;;;;;;;1.10;0.47;;;15.10;82.70;;;;;;5016436;28;20092;-76
2024/03/30 07:17:21;;;;;;;0.45;0.25;;;15.10;82.60;;;;;;5016370;28;20048;-76
2024/03/30 07:19:47;;;;;;;0.60;0.50;;;15.00;82.70;;;;;;5035077;28;20414;-76
2024/03/30 07:22:12;;;;;;;0.30;0.30;;;15.10;83.20;;;;;;5016874;28;20045;-76
2024/03/30 07:24:38;;;;;;;0.30;0.30;;;15.10;83.00;;;;;;5020627;28;20045;-76
2024/03/30 07:27:04;;;;;;;0.35;0.32;;;15.10;82.10;;;;;;4980960;28;20534;-76
2024/03/30 07:29:31;;;;;;;0.60;0.43;;;15.10;82.60;;;;;;4993431;28;20129;-76
2024/03/30 07:32:00;;;;;;;0.50;0.50;;;15.10;83.00;;;;;;5009434;28;20464;-76
2024/03/30 07:34:26;;;;;;;0.30;0.30;;;15.10;82.70;;;;;;5025690;28;20046;-76
2024/03/30 07:36:51;;;;;;;0.43;0.43;;;15.10;82.20;;;;;;5009298;28;20036;-76
2024/03/30 07:39:17;;;;;;;0.20;0.20;;;15.10;82.60;;;;;;5027412;28;20083;-76
2024/03/30 07:41:43;;;;;;;0.52;0.32;;;15.00;82.70;;;;;;4986047;28;20053;-76
2024/03/30 07:44:09;;;;;;;0.40;0.40;;;15.10;83.00;;;;;;5025719;28;20555;-76
2024/03/30 07:46:43;;;;;;;0.40;0.30;;;15.00;82.90;;;;;;5039468;27;20505;-77
2024/03/30 07:49:09;;;;;;;0.30;0.30;;;15.10;83.30;;;;;;5018824;28;20514;-77
2024/03/30 07:51:34;;;;;;;0.35;0.35;;;15.00;82.60;;;;;;5033750;28;20064;-77
2024/03/30 07:54:00;;;;;;;0.22;0.22;;;15.10;82.60;;;;;;5005817;28;20442;-77
2024/03/30 07:56:26;;;;;;;0.30;0.30;;;15.10;83.10;;;;;;5019735;28;20038;-77
2024/03/30 07:58:51;;;;;;;0.30;0.30;;;15.10;82.80;;;;;;5020556;28;20054;-77
2024/03/30 08:01:17;;;;;;;0.63;0.45;;;15.10;82.90;;;;;;5004381;28;20030;-77
2024/03/30 08:03:42;;;;;;;0.82;0.40;;;15.10;83.20;;;;;;5020681;28;20048;-76
2024/03/30 08:06:10;;;;;;;0.28;0.28;;;15.00;82.80;;;;;;5021354;28;20046;-77
2024/03/30 08:08:35;;;;;;;1.10;0.40;;;15.00;82.70;;;;;;5020283;28;20077;-77
2024/03/30 08:11:01;;;;;;;0.30;0.20;;;15.10;82.70;;;;;;5049791;28;20111;-77
2024/03/30 08:13:27;;;;;;;0.30;0.28;;;15.00;82.90;;;;;;5018680;28;20509;-77
2024/03/30 08:15:53;;;;;;;0.30;0.22;;;15.10;83.10;;;;;;5005623;28;20521;-77
2024/03/30 08:18:19;;;;;;;0.50;0.40;;;15.10;82.60;;;;;;5019861;28;20053;-77
2024/03/30 08:20:45;;;;;;;0.43;0.43;;;15.10;82.40;;;;;;5021872;28;20038;-77
2024/03/30 08:23:11;;;;;;;0.30;0.30;;;15.10;82.90;;;;;;5000812;28;20068;-77
2024/03/30 08:25:36;;;;;;;0.30;0.30;;;15.10;83.30;;;;;;5019054;28;20053;-77
2024/03/30 08:28:02;;;;;;;0.30;0.30;;;15.10;83.10;;;;;;5020979;28;20049;-77
2024/03/30 08:30:29;;;;;;;0.40;0.30;;;15.10;82.60;;;;;;5021147;28;20030;-77
2024/03/30 08:32:54;;;;;;;0.20;0.20;;;15.10;83.30;;;;;;5020928;28;20482;-77
2024/03/30 08:35:20;;;;;;;0.30;0.30;;;15.10;82.90;;;;;;5020177;28;20138;-77
2024/03/30 08:37:46;;;;;;;0.30;0.30;;;15.10;83.00;;;;;;5020376;28;20062;-77
2024/03/30 08:40:11;;;;;;;0.30;0.30;;;15.10;82.30;;;;;;5000903;28;20499;-77
2024/03/30 08:42:37;;;;;;;0.47;0.35;;;15.10;82.80;;;;;;5020992;28;20160;-77
2024/03/30 08:45:03;;;;;;;0.20;0.20;;;15.10;82.80;;;;;;5019446;28;20444;-77
2024/03/30 08:47:29;;;;;;;0.40;0.28;;;15.10;83.00;;;;;;5019286;28;20060;-77
2024/03/30 08:49:54;;;;;;;0.20;0.20;;;15.10;83.00;;;;;;5020236;28;20049;-77
2024/03/30 08:52:20;;;;;;;0.20;0.20;;;15.10;84.00;;;;;;5021123;28;20052;-77
2024/03/30 08:54:45;;;;;;;0.20;0.20;;;15.10;84.20;;;;;;5019962;28;20064;-77
2024/03/30 08:57:11;;;;;;;0.32;0.32;;;15.10;82.90;;;;;;5011657;28;20041;-77
2024/03/30 08:59:37;;;;;;;0.30;0.30;;;15.10;83.20;;;;;;5006635;28;20475;-77
2024/03/30 09:02:03;;;;;;;0.30;0.30;;;15.10;83.40;;;;;;5007628;28;20065;-77
2024/03/30 09:04:28;;;;;;;0.22;0.17;;;15.10;82.60;;;;;;5007371;28;20073;-77
2024/03/30 09:06:54;;;;;;;0.20;0.20;;;15.10;82.50;;;;;;5007245;28;20521;-77
2024/03/30 09:09:20;;;;;;;0.30;0.30;;;15.10;82.80;;;;;;5006544;28;20092;-77
2024/03/30 09:11:45;;;;;;;0.38;0.30;;;15.20;82.90;;;;;;5006274;28;20056;-77
2024/03/30 09:14:11;;;;;;;0.20;0.20;;;15.20;83.10;;;;;;5009855;28;20493;-77
2024/03/30 09:16:36;;;;;;;0.20;0.20;;;15.20;82.90;;;;;;4989892;28;20053;-76
2024/03/30 09:19:02;;;;;;;0.45;0.45;;;15.20;82.20;;;;;;5032492;28;20113;-77
2024/03/30 09:21:28;;;;;;;0.30;0.30;;;15.20;82.40;;;;;;5008924;28;20073;-77
2024/03/30 09:23:53;;;;;;;0.20;0.20;;;15.20;82.40;;;;;;5007455;28;20069;-76
2024/03/30 09:26:19;;;;;;;0.32;0.32;;;15.20;82.70;;;;;;5006011;28;20122;-77
2024/03/30 09:28:45;;;;;;;0.25;0.20;;;15.20;81.80;;;;;;5007602;28;20060;-77
2024/03/30 09:31:10;;;;;;;0.20;0.20;;;15.30;81.70;;;;;;5007598;28;20045;-77
2024/03/30 09:33:36;;;;;;;0.30;0.30;;;15.20;82.10;;;;;;5007103;28;20038;-77
2024/03/30 09:36:08;;;;;;;0.45;0.20;;;15.30;82.20;;;;;;5005297;28;20037;-77
2024/03/30 09:38:34;;;;;;;0.17;0.17;;;15.30;82.30;;;;;;5004088;28;20045;-77
2024/03/30 09:41:02;;;;;;;0.20;0.10;;;15.30;82.60;;;;;;5006233;28;20042;-77
2024/03/30 09:43:27;;;;;;;0.20;0.20;;;15.30;82.60;;;;;;4989543;28;20042;-76
2024/03/30 09:45:53;;;;;;;0.30;0.30;;;15.30;82.80;;;;;;4990118;28;20038;-77
2024/03/30 09:48:19;;;;;;;0.20;0.20;;;15.30;82.10;;;;;;4990481;28;20422;-77
2024/03/30 09:50:44;;;;;;;0.20;0.20;;;15.30;81.70;;;;;;5005663;28;20041;-77
2024/03/30 09:53:10;;;;;;;0.20;0.20;;;15.30;82.00;;;;;;5002975;28;20040;-77
2024/03/30 09:55:36;;;;;;;0.20;0.20;;;15.30;82.10;;;;;;5005298;28;20421;-77
2024/03/30 09:58:01;;;;;;;0.30;0.30;;;15.30;82.10;;;;;;5006858;28;20100;-77
2024/03/30 10:00:27;;;;;;;0.20;0.20;;;15.30;81.90;;;;;;5005470;28;20121;-77
2024/03/30 10:02:53;;;;;;;0.40;0.30;;;15.30;81.40;;;;;;4990414;28;20049;-77
2024/03/30 10:05:18;;;;;;;0.30;0.30;;;15.30;81.60;;;;;;5005744;28;20141;-77
2024/03/30 10:07:50;;;;;;;0.20;0.20;;;15.30;82.20;;;;;;5005626;28;20073;-77
2024/03/30 10:10:16;;;;;;;0.30;0.28;;;15.30;81.70;;;;;;5005329;28;20616;-77
2024/03/30 10:12:46;;;;;;;0.20;0.20;;;15.30;81.70;;;;;;5033133;28;20451;-76
2024/03/30 10:15:15;;;;;;;0.20;0.20;;;15.30;81.80;;;;;;5004251;28;20042;-77
2024/03/30 10:17:41;;;;;;;0.20;0.20;;;15.30;81.70;;;;;;4990924;28;20046;-77
2024/03/30 10:20:07;;;;;;;0.20;0.20;;;15.30;81.60;;;;;;4990752;28;20132;-77
2024/03/30 10:22:33;;;;;;;0.30;0.30;;;15.30;82.20;;;;;;5005334;28;20045;-77
2024/03/30 10:24:59;;;;;;;0.30;0.22;;;15.40;82.20;;;;;;4988882;28;20042;-76
2024/03/30 10:27:24;;;;;;;0.17;0.10;;;15.40;81.80;;;;;;5006724;28;20030;-76
2024/03/30 10:29:50;;;;;;;0.10;0.10;;;15.40;81.80;;;;;;5005075;28;20037;-77
2024/03/30 10:32:15;;;;;;;0.20;0.20;;;15.40;81.80;;;;;;5006189;28;20462;-77
2024/03/30 10:34:41;;;;;;;0.30;0.20;;;15.50;81.80;;;;;;5004881;28;20045;-77
2024/03/30 10:37:07;;;;;;;0.20;0.20;;;15.50;81.30;;;;;;5033290;28;20038;-77
2024/03/30 10:39:33;;;;;;;0.28;0.28;;;15.50;81.60;;;;;;5006348;28;20066;-77
2024/03/30 10:41:58;;;;;;;0.30;0.30;;;15.60;81.40;;;;;;4989561;28;20488;-76
2024/03/30 10:44:28;;;;;;;0.10;0.10;;;15.60;80.60;;;;;;5033632;28;20407;-77
2024/03/30 10:46:54;;;;;;;0.25;0.25;;;15.60;80.90;;;;;;5005167;28;20068;-77
2024/03/30 10:49:20;;;;;;;0.20;0.20;;;15.60;81.50;;;;;;4988894;28;20065;-76
2024/03/30 10:51:46;;;;;;;0.20;0.20;;;15.60;81.70;;;;;;4996275;28;20160;-77
2024/03/30 10:54:18;;;;;;;0.38;0.30;;;15.60;81.90;;;;;;5003496;28;20476;-77
2024/03/30 10:56:51;;;;;;;0.20;0.20;;;15.70;81.50;;;;;;5003117;28;20054;-77
2024/03/30 10:59:20;;;;;;;0.03;0.03;;;15.60;81.40;;;;;;5002195;28;20037;-76
2024/03/30 11:01:50;;;;;;;0.20;0.20;;;15.60;81.50;;;;;;5004267;28;20046;-77
2024/03/30 11:04:17;;;;;;;0.20;0.10;;;15.70;81.10;;;;;;5004297;28;20135;-77
2024/03/30 11:06:44;;;;;;;0.20;0.20;;;15.70;81.00;;;;;;5004631;28;20053;-76
2024/03/30 11:09:13;;;;;;;0.10;0.10;;;15.70;80.30;;;;;;5005174;28;20042;-76
2024/03/30 11:11:39;;;;;;;0.28;0.20;;;15.70;80.70;;;;;;5001806;28;20120;-77
2024/03/30 11:14:05;;;;;;;0.13;0.13;;;15.80;80.40;;;;;;5018078;28;20170;-76
2024/03/30 11:16:51;;;;;;;0.35;0.20;;;15.80;81.20;;;;;;5017446;28;20058;-77
2024/03/30 11:20:04;;;;;;;0.20;0.20;;;15.80;81.80;;;;;;5003050;28;20045;-77
2024/03/30 11:22:52;;;;;;;0.20;0.20;;;15.80;81.70;;;;;;4981583;28;20103;-77
2024/03/30 11:25:18;;;;;;;0.28;0.28;;;15.80;81.70;;;;;;5004597;28;20046;-76
2024/03/30 11:27:49;;;;;;;0.38;0.30;;;15.70;81.80;;;;;;4988040;28;20034;-77
2024/03/30 11:30:38;;;;;;;0.20;0.20;;;15.80;81.60;;;;;;5015822;28;20056;-76
2024/03/30 11:33:11;;;;;;;0.10;0.10;;;15.80;81.20;;;;;;4983911;28;20033;-77
2024/03/30 11:35:52;;;;;;;0.10;0.10;;;15.80;80.20;;;;;;5004690;28;20046;-77
2024/03/30 11:38:18;;;;;;;0.10;0.10;;;15.90;80.00;;;;;;4991114;28;20041;-77
2024/03/30 11:41:00;;;;;;;0.10;0.10;;;15.90;79.50;;;;;;4988476;28;20113;-76
2024/03/30 11:43:50;;;;;;;0.40;0.10;;;15.90;80.00;;;;;;5016727;28;20077;-77
2024/03/30 11:46:16;;;;;;;0.30;0.30;;;15.90;79.80;;;;;;5000494;28;20519;-77
2024/03/30 11:48:41;;;;;;;0.20;0.10;;;15.90;80.50;;;;;;5034303;28;20042;-77
2024/03/30 11:51:19;;;;;;;0.25;0.20;;;16.00;80.60;;;;;;4987139;28;20046;-77
2024/03/30 11:53:45;;;;;;;0.20;0.20;;;16.00;80.10;;;;;;5004351;28;20038;-77
2024/03/30 11:56:12;;;;;;;0.20;0.20;;;16.00;79.80;;;;;;5001571;28;20200;-76
2024/03/30 11:58:40;;;;;;;0.20;0.20;;;16.00;80.10;;;;;;4970382;28;20037;-77
2024/03/30 12:01:06;;;;;;;0.20;0.20;;;16.00;80.20;;;;;;5001387;28;20253;-77
2024/03/30 12:03:32;;;;;;;0.10;0.10;;;16.10;80.80;;;;;;4987999;28;20132;-77
2024/03/30 12:05:59;;;;;;;0.30;0.30;;;16.00;79.90;;;;;;5001977;28;20076;-77
2024/03/30 12:08:31;;;;;;;0.20;0.20;;;15.90;80.00;;;;;;5029526;28;20042;-77
2024/03/30 12:10:57;;;;;;;0.10;0.10;;;16.00;80.20;;;;;;4997602;28;20137;-77
2024/03/30 12:13:24;;;;;;;0.20;0.20;;;16.00;80.50;;;;;;5003332;28;20045;-77
2024/03/30 12:15:50;;;;;;;0.20;0.20;;;16.00;80.80;;;;;;4986694;28;20073;-77
2024/03/30 12:18:16;;;;;;;0.25;0.25;;;16.00;79.40;;;;;;5004958;28;20499;-76
2024/03/30 12:20:42;;;;;;;0.20;0.20;;;16.00;79.80;;;;;;5002066;28;20104;-76
2024/03/30 12:23:10;;;;;;;0.10;0.10;;;16.10;80.10;;;;;;5003475;28;20454;-77
2024/03/30 12:25:36;;;;;;;0.17;0.17;;;16.10;80.30;;;;;;5000195;28;20453;-77
2024/03/30 12:28:01;;;;;;;0.10;0.05;;;16.10;80.10;;;;;;5004922;28;20034;-77
2024/03/30 12:30:27;;;;;;;0.10;0.10;;;16.10;80.50;;;;;;5004760;28;20057;-77
2024/03/30 12:32:54;;;;;;;0.10;0.10;;;16.10;80.60;;;;;;4990121;28;20125;-77
2024/03/30 12:35:20;;;;;;;0.20;0.20;;;16.10;80.50;;;;;;5035510;28;20527;-77
2024/03/30 12:37:45;;;;;;;0.30;0.20;;;16.10;80.90;;;;;;5005409;28;20076;-76
2024/03/30 12:40:11;;;;;;;0.20;0.20;;;16.10;80.60;;;;;;4988730;28;20399;-77
2024/03/30 12:42:37;;;;;;;0.20;0.20;;;16.10;80.10;;;;;;4989364;28;20132;-76
2024/03/30 12:45:03;;;;;;;0.10;0.10;;;16.10;80.10;;;;;;5006439;28;20043;-77
2024/03/30 12:47:28;;;;;;;0.20;0.20;;;16.10;80.70;;;;;;5007332;28;20553;-77
2024/03/30 12:49:54;;;;;;;0.10;0.10;;;16.10;80.50;;;;;;5006937;28;20049;-77
2024/03/30 12:52:19;;;;;;;0.17;0.10;;;16.10;81.30;;;;;;5006214;28;20041;-77